createdAt,value
2018-05-10T00:00:49.554Z,16.90
2018-05-10T00:03:58.973Z,17.00
2018-05-10T00:07:08.376Z,17.20
2018-05-10T00:10:18.222Z,17.10
2018-05-10T00:13:28.482Z,17.10
2018-05-10T00:16:38.350Z,16.70
2018-05-10T00:19:48.248Z,16.70
2018-05-10T00:22:58.457Z,16.80
2018-05-10T00:26:08.721Z,16.70
2018-05-10T00:29:18.625Z,16.60
2018-05-10T00:32:27.995Z,16.50
2018-05-10T00:35:37.897Z,16.30
2018-05-10T00:38:47.727Z,16.50
2018-05-10T00:41:58.599Z,16.40
2018-05-10T00:45:08.540Z,16.40
2018-05-10T00:48:18.383Z,16.20
2018-05-10T00:51:27.722Z,16.30
2018-05-10T00:54:54.815Z,16.10
2018-05-10T00:58:04.505Z,16.10
2018-05-10T01:01:14.029Z,15.90
2018-05-10T01:04:23.783Z,16.10
2018-05-10T01:07:33.091Z,15.90
2018-05-10T01:10:42.910Z,15.90
2018-05-10T01:13:52.318Z,15.70
2018-05-10T01:17:02.212Z,15.70
2018-05-10T01:20:12.062Z,15.70
2018-05-10T01:23:21.712Z,15.60
2018-05-10T01:26:31.119Z,15.50
2018-05-10T01:29:41.048Z,15.60
2018-05-10T01:32:51.292Z,15.40
2018-05-10T01:36:14.792Z,15.50
2018-05-10T01:39:24.147Z,15.40
2018-05-10T01:42:33.985Z,15.20
2018-05-10T01:45:43.437Z,15.30
2018-05-10T01:48:52.742Z,15.40
2018-05-10T01:52:02.573Z,15.20
2018-05-10T01:55:12.551Z,15.40
2018-05-10T01:58:22.903Z,15.40
2018-05-10T02:01:32.946Z,15.50
2018-05-10T02:04:42.872Z,15.40
2018-05-10T02:07:52.413Z,15.40
2018-05-10T02:11:02.084Z,15.30
2018-05-10T02:14:12.300Z,15.10
2018-05-10T02:17:22.588Z,15.10
2018-05-10T02:20:31.863Z,15.10
2018-05-10T02:23:41.259Z,14.90
2018-05-10T02:26:51.708Z,14.80
2018-05-10T02:30:01.121Z,14.70
2018-05-10T02:33:10.583Z,14.30
2018-05-10T02:36:20.834Z,14.50
2018-05-10T02:39:30.300Z,14.70
2018-05-10T02:42:40.518Z,14.50
2018-05-10T02:45:51.325Z,14.50
2018-05-10T02:49:00.875Z,14.40
2018-05-10T02:52:10.681Z,14.50
2018-05-10T02:55:20.086Z,14.30
2018-05-10T02:58:29.361Z,14.10
2018-05-10T03:01:38.854Z,14.60
2018-05-10T03:04:49.164Z,14.50
2018-05-10T03:07:58.985Z,14.50
2018-05-10T03:11:08.964Z,14.50
2018-05-10T03:14:18.845Z,14.80
2018-05-10T03:17:28.279Z,15.00
2018-05-10T03:20:38.332Z,15.00
2018-05-10T03:23:47.917Z,14.80
2018-05-10T03:26:59.080Z,15.00
2018-05-10T03:30:08.538Z,15.00
2018-05-10T03:33:18.368Z,15.20
2018-05-10T03:36:28.195Z,15.20
2018-05-10T03:39:37.627Z,15.00
2018-05-10T03:42:48.129Z,15.00
2018-05-10T03:45:58.124Z,15.10
2018-05-10T03:49:08.128Z,15.10
2018-05-10T03:52:18.282Z,15.00
2018-05-10T03:55:27.724Z,14.90
2018-05-10T03:58:37.229Z,15.20
2018-05-10T04:01:46.779Z,15.30
2018-05-10T04:05:14.954Z,15.00
2018-05-10T04:12:07.643Z,15.10
2018-05-10T04:15:16.996Z,15.10
2018-05-10T04:18:30.921Z,15.20
2018-05-10T04:21:41.308Z,15.20
2018-05-10T04:24:51.175Z,15.30
2018-05-10T04:28:00.660Z,15.10
2018-05-10T04:31:10.496Z,15.00
2018-05-10T04:34:20.488Z,15.00
2018-05-10T04:37:30.774Z,15.20
2018-05-10T04:40:40.252Z,15.50
2018-05-10T04:43:49.685Z,15.40
2018-05-10T04:46:59.872Z,15.30
2018-05-10T04:50:09.354Z,15.50
2018-05-10T04:53:18.907Z,15.30
2018-05-10T04:56:28.227Z,15.20
2018-05-10T04:59:37.547Z,15.60
2018-05-10T05:02:47.292Z,15.60
2018-05-10T05:05:56.759Z,15.60
2018-05-10T05:09:06.632Z,15.30
2018-05-10T05:12:16.137Z,15.20
2018-05-10T05:15:25.537Z,15.40
2018-05-10T05:18:38.906Z,15.40
2018-05-10T05:21:48.449Z,15.90
2018-05-10T05:24:58.272Z,15.80
2018-05-10T05:28:08.471Z,16.00
2018-05-10T05:31:17.927Z,15.80
2018-05-10T05:34:27.906Z,15.50
2018-05-10T05:37:37.817Z,14.20
2018-05-10T05:40:47.395Z,15.00
2018-05-10T05:43:56.881Z,14.80
2018-05-10T05:47:06.368Z,14.70
2018-05-10T05:50:16.599Z,14.70
2018-05-10T05:53:26.272Z,14.40
2018-05-10T05:56:36.534Z,14.70
2018-05-10T05:59:45.950Z,14.50
2018-05-10T06:02:55.189Z,14.60
2018-05-10T06:06:05.463Z,14.40
2018-05-10T06:09:15.275Z,14.40
2018-05-10T06:12:24.742Z,14.30
2018-05-10T06:15:34.421Z,13.80
2018-05-10T06:18:44.533Z,13.30
2018-05-10T06:21:54.090Z,13.80
2018-05-10T06:25:05.438Z,14.00
2018-05-10T06:28:15.017Z,14.40
2018-05-10T06:31:30.326Z,14.10
2018-05-10T06:34:41.354Z,14.60
2018-05-10T06:37:52.472Z,14.70
2018-05-10T06:41:02.063Z,14.60
2018-05-10T06:44:12.770Z,14.70
2018-05-10T06:47:22.440Z,15.00
2018-05-10T06:50:32.488Z,15.10
2018-05-10T06:53:41.890Z,15.40
2018-05-10T06:56:52.638Z,15.30
2018-05-10T07:00:02.038Z,15.40
2018-05-10T07:03:11.363Z,15.20
2018-05-10T07:06:21.666Z,15.50
2018-05-10T07:09:31.691Z,15.70
2018-05-10T07:12:41.988Z,15.40
2018-05-10T07:15:52.405Z,15.30
2018-05-10T07:19:01.861Z,15.50
2018-05-10T07:22:12.099Z,15.40
2018-05-10T07:25:22.194Z,15.60
2018-05-10T07:28:31.669Z,15.70
2018-05-10T07:31:46.038Z,15.60
2018-05-10T07:34:55.768Z,15.60
2018-05-10T07:38:07.491Z,15.80
2018-05-10T07:41:16.852Z,16.00
2018-05-10T07:44:26.451Z,15.60
2018-05-10T07:47:35.981Z,15.70
2018-05-10T07:50:46.168Z,16.20
2018-05-10T07:53:57.693Z,16.20
2018-05-10T07:57:09.411Z,16.00
2018-05-10T08:00:19.296Z,16.50
2018-05-10T08:03:29.002Z,16.30
2018-05-10T08:06:47.057Z,16.10
2018-05-10T08:09:56.843Z,16.50
2018-05-10T08:13:06.734Z,16.80
2018-05-10T08:16:17.227Z,16.80
2018-05-10T08:19:27.403Z,16.60
2018-05-10T08:22:37.708Z,16.80
2018-05-10T08:25:47.595Z,17.00
2018-05-10T08:28:57.578Z,17.10
2018-05-10T08:32:07.908Z,17.20
2018-05-10T08:35:17.997Z,17.50
2018-05-10T08:38:28.303Z,17.80
2018-05-10T08:41:37.916Z,17.60
2018-05-10T08:44:47.355Z,17.10
2018-05-10T08:47:57.209Z,17.60
2018-05-10T08:51:07.296Z,17.50
2018-05-10T08:54:17.074Z,17.20
2018-05-10T08:57:31.251Z,17.30
2018-05-10T09:00:41.609Z,17.60
2018-05-10T09:03:51.961Z,17.60
2018-05-10T09:07:01.328Z,17.90
2018-05-10T09:10:13.413Z,18.60
2018-05-10T09:13:22.880Z,18.70
2018-05-10T09:16:32.804Z,18.20
2018-05-10T09:19:42.429Z,18.10
2018-05-10T09:22:51.922Z,18.70
2018-05-10T09:26:01.792Z,18.30
2018-05-10T09:29:13.470Z,19.00
2018-05-10T09:32:22.996Z,19.20
2018-05-10T09:35:33.006Z,19.60
2018-05-10T09:38:43.143Z,20.00
2018-05-10T09:41:53.329Z,20.30
2018-05-10T09:45:03.189Z,19.80
2018-05-10T09:48:15.473Z,16.80
2018-05-10T09:51:25.370Z,18.30
2018-05-10T09:54:34.927Z,17.40
2018-05-10T09:57:45.439Z,17.90
2018-05-10T10:00:55.979Z,17.00
2018-05-10T10:04:06.890Z,16.20
2018-05-10T10:07:16.795Z,16.00
2018-05-10T10:10:26.255Z,15.90
2018-05-10T10:13:35.737Z,16.10
2018-05-10T10:16:45.088Z,15.90
2018-05-10T10:19:55.388Z,15.90
2018-05-10T10:23:05.657Z,15.90
2018-05-10T10:26:17.043Z,15.80
2018-05-10T10:29:26.620Z,15.90
2018-05-10T10:32:36.886Z,16.00
2018-05-10T10:35:46.479Z,16.30
2018-05-10T10:38:56.461Z,15.70
2018-05-10T10:42:06.801Z,15.70
2018-05-10T10:45:17.135Z,15.80
2018-05-10T10:48:27.033Z,15.90
2018-05-10T10:51:37.020Z,15.70
2018-05-10T10:54:47.477Z,15.70
2018-05-10T10:57:57.586Z,15.60
2018-05-10T11:01:07.144Z,15.50
2018-05-10T11:07:27.853Z,15.40
2018-05-10T11:10:38.092Z,15.30
2018-05-10T11:13:47.977Z,15.40
2018-05-10T11:16:58.004Z,15.00
2018-05-10T11:20:07.679Z,14.50
2018-05-10T11:23:23.433Z,14.70
2018-05-10T11:26:32.800Z,14.80
2018-05-10T11:29:42.309Z,15.00
2018-05-10T11:32:51.845Z,14.60
2018-05-10T11:36:01.542Z,14.20
2018-05-10T11:39:11.409Z,14.00
2018-05-10T11:42:20.840Z,13.90
2018-05-10T11:45:30.738Z,14.00
2018-05-10T11:48:40.469Z,13.90
2018-05-10T11:51:50.110Z,14.00
2018-05-10T11:55:00.356Z,13.90
2018-05-10T11:58:10.644Z,13.90
2018-05-10T12:01:20.938Z,14.00
2018-05-10T12:04:30.367Z,14.20
2018-05-10T12:07:40.044Z,14.10
2018-05-10T12:10:50.831Z,14.20
2018-05-10T12:14:00.391Z,14.40
2018-05-10T12:17:10.142Z,14.20
2018-05-10T12:20:21.038Z,14.10
2018-05-10T12:23:30.487Z,14.00
2018-05-10T12:26:39.955Z,13.90
2018-05-10T12:29:49.795Z,13.90
2018-05-10T12:32:59.247Z,13.80
2018-05-10T12:36:10.357Z,13.80
2018-05-10T12:39:21.728Z,13.70
2018-05-10T12:42:32.015Z,13.50
2018-05-10T12:45:41.501Z,13.50
2018-05-10T12:48:52.293Z,13.20
2018-05-10T12:52:01.605Z,13.00
2018-05-10T12:55:11.560Z,12.90
2018-05-10T12:58:23.657Z,12.90
2018-05-10T13:01:33.847Z,12.80
2018-05-10T13:04:43.615Z,12.80
2018-05-10T13:07:53.891Z,12.80
2018-05-10T13:11:03.758Z,12.70
2018-05-10T13:14:17.091Z,12.80
2018-05-10T13:17:26.513Z,12.90
2018-05-10T13:20:36.109Z,12.80
2018-05-10T13:23:46.241Z,12.50
2018-05-10T13:26:55.751Z,12.70
2018-05-10T13:30:05.769Z,12.50
2018-05-10T13:33:15.393Z,12.30
2018-05-10T13:36:25.840Z,12.50
2018-05-10T13:39:35.949Z,12.40
2018-05-10T13:42:50.623Z,12.40
2018-05-10T13:45:59.991Z,12.50
2018-05-10T13:49:09.553Z,12.60
2018-05-10T13:52:19.789Z,12.60
2018-05-10T13:55:29.327Z,12.80
2018-05-10T13:58:38.921Z,12.70
2018-05-10T14:01:48.166Z,12.80
2018-05-10T14:04:57.952Z,12.90
2018-05-10T14:08:07.411Z,13.00
2018-05-10T14:11:17.699Z,13.00
2018-05-10T14:14:27.926Z,13.10
2018-05-10T14:17:38.038Z,13.10
2018-05-10T14:20:47.636Z,12.90
2018-05-10T14:23:57.542Z,13.00
2018-05-10T14:27:07.404Z,13.40
2018-05-10T14:30:16.887Z,13.40
2018-05-10T14:33:27.689Z,13.60
2018-05-10T14:36:37.108Z,13.70
2018-05-10T14:39:46.570Z,13.60
2018-05-10T14:42:56.203Z,13.70
2018-05-10T14:46:05.834Z,13.90
2018-05-10T14:49:15.229Z,13.90
2018-05-10T14:52:24.852Z,13.90
2018-05-10T14:55:34.945Z,14.00
2018-05-10T14:58:44.292Z,14.00
2018-05-10T15:01:53.664Z,13.90
2018-05-10T15:05:03.818Z,14.00
2018-05-10T15:08:14.031Z,14.00
2018-05-10T15:11:24.395Z,14.10
2018-05-10T15:14:34.525Z,14.10
2018-05-10T15:17:44.132Z,14.20
2018-05-10T15:20:54.598Z,14.10
2018-05-10T15:24:04.689Z,14.20
2018-05-10T15:27:15.108Z,14.20
2018-05-10T15:30:25.072Z,14.30
2018-05-10T15:33:34.993Z,14.30
2018-05-10T15:36:45.325Z,14.40
2018-05-10T15:39:54.881Z,14.50
2018-05-10T15:43:04.248Z,14.70
2018-05-10T15:46:13.620Z,14.60
2018-05-10T15:49:23.036Z,14.80
2018-05-10T15:52:33.384Z,14.90
2018-05-10T15:55:43.257Z,15.00
2018-05-10T15:58:52.613Z,14.90
2018-05-10T16:02:02.104Z,14.80
2018-05-10T16:05:11.683Z,15.00
2018-05-10T16:08:21.095Z,15.30
2018-05-10T16:11:32.864Z,15.10
2018-05-10T16:14:43.518Z,15.20
2018-05-10T16:17:57.050Z,15.20
2018-05-10T16:21:06.417Z,15.30
2018-05-10T16:24:16.691Z,15.30
2018-05-10T16:27:26.864Z,15.20
2018-05-10T16:30:37.256Z,15.10
2018-05-10T16:33:46.773Z,14.90
2018-05-10T16:36:56.330Z,15.40
2018-05-10T16:40:06.777Z,15.30
2018-05-10T16:43:16.648Z,15.50
2018-05-10T16:46:26.568Z,15.40
2018-05-10T16:49:36.695Z,15.60
2018-05-10T16:52:46.900Z,15.40
2018-05-10T16:55:57.200Z,15.40
2018-05-10T16:59:07.155Z,15.20
2018-05-10T17:02:16.756Z,15.40
2018-05-10T17:05:27.051Z,15.20
2018-05-10T17:08:37.328Z,14.90
2018-05-10T17:11:47.192Z,14.90
2018-05-10T17:14:56.548Z,15.00
2018-05-10T17:18:06.008Z,14.60
2018-05-10T17:21:16.356Z,14.50
2018-05-10T17:24:25.696Z,14.40
2018-05-10T17:27:37.229Z,14.30
2018-05-10T17:30:47.076Z,14.20
2018-05-10T17:33:56.569Z,14.20
2018-05-10T17:37:06.662Z,14.10
2018-05-10T17:40:16.927Z,14.00
2018-05-10T17:43:26.561Z,14.00
2018-05-10T17:46:38.272Z,13.90
2018-05-10T17:49:47.759Z,13.70
2018-05-10T17:52:57.273Z,13.80
2018-05-10T17:56:06.798Z,13.60
2018-05-10T17:59:17.299Z,13.40
2018-05-10T18:02:27.492Z,13.20
2018-05-10T18:05:39.445Z,13.00
2018-05-10T18:08:49.005Z,13.00
2018-05-10T18:11:58.523Z,12.60
2018-05-10T18:15:07.905Z,12.70
2018-05-10T18:18:17.459Z,12.80
2018-05-10T18:21:26.792Z,12.40
2018-05-10T18:24:36.325Z,12.60
2018-05-10T18:27:47.000Z,12.20
2018-05-10T18:30:56.772Z,12.00
2018-05-10T18:34:06.772Z,12.30
2018-05-10T18:37:16.668Z,12.20
2018-05-10T18:40:26.153Z,12.10
2018-05-10T18:43:35.627Z,12.20
2018-05-10T18:46:46.027Z,12.00
2018-05-10T18:49:56.017Z,12.30
2018-05-10T18:53:05.920Z,12.30
2018-05-10T18:56:15.376Z,12.20
2018-05-10T18:59:25.358Z,12.30
2018-05-10T19:02:35.261Z,12.30
2018-05-10T19:05:44.750Z,12.10
2018-05-10T19:08:54.261Z,12.10
2018-05-10T19:12:04.628Z,12.30
2018-05-10T19:15:14.027Z,12.10
2018-05-10T19:18:24.491Z,12.10
2018-05-10T19:21:34.236Z,12.00
2018-05-10T19:24:44.400Z,12.00
2018-05-10T19:27:53.904Z,12.20
2018-05-10T19:31:03.304Z,12.00
2018-05-10T19:34:12.806Z,12.00
2018-05-10T19:37:22.284Z,11.90
2018-05-10T19:40:31.644Z,11.80
2018-05-10T19:43:41.181Z,11.90
2018-05-10T19:46:50.549Z,11.60
2018-05-10T19:50:00.452Z,11.50
2018-05-10T19:53:09.937Z,11.50
2018-05-10T19:56:19.798Z,11.40
2018-05-10T19:59:29.280Z,11.50
2018-05-10T20:02:39.452Z,11.30
2018-05-10T20:05:49.367Z,11.20
2018-05-10T20:08:58.616Z,11.10
2018-05-10T20:12:08.056Z,11.40
2018-05-10T20:15:17.967Z,11.10
2018-05-10T20:18:28.306Z,11.00
2018-05-10T20:21:37.864Z,10.70
2018-05-10T20:24:47.956Z,10.60
2018-05-10T20:27:57.469Z,10.70
2018-05-10T20:31:07.329Z,10.70
2018-05-10T20:34:18.395Z,10.60
2018-05-10T20:37:27.803Z,10.30
2018-05-10T20:40:37.233Z,10.60
2018-05-10T20:43:47.678Z,10.30
2018-05-10T20:46:57.992Z,10.20
2018-05-10T20:50:07.974Z,10.10
2018-05-10T20:53:17.493Z,10.00
2018-05-10T20:56:26.908Z,10.10
2018-05-10T20:59:37.189Z,10.10
2018-05-10T21:02:48.697Z,10.10
2018-05-10T21:05:58.904Z,10.30
2018-05-10T21:09:08.508Z,10.00
2018-05-10T21:12:35.760Z,9.90
2018-05-10T21:15:46.939Z,10.00
2018-05-10T21:18:57.224Z,9.80
2018-05-10T21:22:07.495Z,9.80
2018-05-10T21:25:17.137Z,9.90
2018-05-10T21:28:26.721Z,9.90
2018-05-10T21:31:36.581Z,9.80
2018-05-10T21:34:48.056Z,9.50
2018-05-10T21:37:58.036Z,9.30
2018-05-10T21:41:07.516Z,9.10
2018-05-10T21:44:17.420Z,9.30
2018-05-10T21:47:27.376Z,9.30
2018-05-10T21:50:36.839Z,9.50
2018-05-10T21:53:46.736Z,9.20
2018-05-10T21:56:56.763Z,9.20
2018-05-10T22:00:06.209Z,9.10
2018-05-10T22:03:16.629Z,9.20
2018-05-10T22:06:26.056Z,9.20
2018-05-10T22:09:35.354Z,9.30
2018-05-10T22:12:44.677Z,9.20
2018-05-10T22:15:54.024Z,8.90
2018-05-10T22:19:03.559Z,9.00
2018-05-10T22:22:12.962Z,9.00
2018-05-10T22:25:22.995Z,8.80
2018-05-10T22:28:32.596Z,8.70
2018-05-10T22:31:42.269Z,8.60
2018-05-10T22:34:52.755Z,8.40
2018-05-10T22:38:03.031Z,8.30
2018-05-10T22:41:12.876Z,8.20
2018-05-10T22:44:22.327Z,8.20
2018-05-10T22:47:33.073Z,8.20
2018-05-10T22:50:42.426Z,8.10
2018-05-10T22:53:53.711Z,8.10
2018-05-10T22:57:03.549Z,8.40
2018-05-10T23:00:12.968Z,8.40
2018-05-10T23:03:23.064Z,8.40
2018-05-10T23:06:32.521Z,8.50
2018-05-10T23:09:42.804Z,8.50
2018-05-10T23:12:54.615Z,8.50
2018-05-10T23:16:04.923Z,8.40
2018-05-10T23:19:15.136Z,8.30
2018-05-10T23:22:25.424Z,8.40
2018-05-10T23:25:34.884Z,8.40
2018-05-10T23:28:44.836Z,8.40
2018-05-10T23:31:55.700Z,8.20
2018-05-10T23:35:05.808Z,8.00
2018-05-10T23:38:15.275Z,7.80
2018-05-10T23:41:24.735Z,7.80
2018-05-10T23:44:34.964Z,7.80
2018-05-10T23:47:45.215Z,7.80
2018-05-10T23:50:56.858Z,7.80
2018-05-10T23:54:06.369Z,7.80
2018-05-10T23:57:15.808Z,7.80
